F/V Kersatao — FHQJ — position and weather

sailwx.info

Track history (hours):
 
Tides and Currents Weather Stations Pressure Air Temp Water Temp Dewpoint Dewpoint Depression Visibility Wind Speed Wind Dir Waves Ship Positions

F/V Kersatao

Last reported at 2017-Sep-20 00:30 UTC. Time now 2017-Sep-20 00:30 UTC.
Position N 47°18' W 002°31'.

Length 21 m.

Type: Other ship. MMSI: 227879000.

Date/timePositionNaut miles runAvg speedWind from/ knotsBaromVisibWave heightAir tempDewpointWater temp
2017-Sep-20 00:30N 47°18' W 002°31'1 1.2
2017-Sep-19 23:58N 47°19' W 002°31'4 8.1
2017-Sep-19 23:26N 47°16' W 002°36'610.7
2017-Sep-19 22:54N 47°11' W 002°41'2 0.0
2017-Sep-18 00:12N 47°09' W 002°39'2 8.2
2017-Sep-18 00:00N 47°11' W 002°38'5 9.5
2017-Sep-17 23:30N 47°15' W 002°36'4 9.0
2017-Sep-17 23:00N 47°19' W 002°33'2 0.0
2017-Sep-16 02:00N 47°18' W 002°31'0 0.1
2017-Sep-16 01:09N 47°18' W 002°31'0 0.1
2017-Sep-16 00:20N 47°18' W 002°31'0 0.0
2017-Sep-15 23:47N 47°18' W 002°31'3 5.9
2017-Sep-15 23:20N 47°18' W 002°35'4 9.8
2017-Sep-15 22:55N 47°15' W 002°37'48 1.8
2017-Sep-14 20:13N 47°20' W 003°48'8 2.8
2017-Sep-14 17:28N 47°27' W 003°53'2 3.7
2017-Sep-14 17:00N 47°28' W 003°55'2 3.7
2017-Sep-14 16:30N 47°28' W 003°58'2 3.5
2017-Sep-14 15:58N 47°30' W 003°60'2 3.7
2017-Sep-14 15:30N 47°30' W 004°02'2 3.1
2017-Sep-14 14:59N 47°28' W 004°02'2 1.2
2017-Sep-14 13:21N 47°30' W 004°03'1 3.5
2017-Sep-14 13:00N 47°30' W 004°02'2 3.4
2017-Sep-14 12:30N 47°29' W 003°59'2 3.7
2017-Sep-14 11:59N 47°29' W 003°56'1 2.9
2017-Sep-14 11:30N 47°30' W 003°55'2 3.3
2017-Sep-14 11:00N 47°31' W 003°52'2 3.2
2017-Sep-14 10:28N 47°31' W 003°50'6 3.1
2017-Sep-14 08:33N 47°37' W 003°47'1 4.9
2017-Sep-14 08:23N 47°37' W 003°49'1 2.6
2017-Sep-14 07:58N 47°36' W 003°50'1 3.1
2017-Sep-14 07:30N 47°35' W 003°49'2 3.1
2017-Sep-14 07:00N 47°34' W 003°48'2 3.2
2017-Sep-14 06:30N 47°32' W 003°48'2 3.5
2017-Sep-14 06:00N 47°31' W 003°50'2 3.4
2017-Sep-14 05:30N 47°29' W 003°51'2 3.8
2017-Sep-14 04:54N 47°27' W 003°52'3 7.8
2017-Sep-14 04:30N 47°25' W 003°49'4 8.4
2017-Sep-14 04:00N 47°21' W 003°45'4 8.5
2017-Sep-14 03:30N 47°18' W 003°41'  
2017-Sep-11 00:36N 47°08' W 003°07'1 7.3
2017-Sep-11 00:30N 47°08' W 003°06'4 7.7
2017-Sep-11 00:00N 47°10' W 003°01'4 8.1
2017-Sep-10 23:27N 47°13' W 002°55'4 8.3
2017-Sep-10 23:00N 47°15' W 002°51'4 8.3
2017-Sep-10 22:30N 47°17' W 002°45'4 8.2
2017-Sep-10 22:00N 47°19' W 002°40'4 7.5
2017-Sep-10 21:30N 47°19' W 002°34'3 5.7
2017-Sep-10 21:01N 47°18' W 002°31'  
Track history (hours):
 
Tides and Currents Weather Stations Pressure Air Temp Water Temp Dewpoint Dewpoint Depression Visibility Wind Speed Wind Dir Waves Ship Positions

F/V Kersatao

Last reported at 2017-Sep-20 00:30 UTC. Time now 2017-Sep-20 00:30 UTC.
Position N 47°18' W 002°31'.

Length 21 m.

Type: Other ship. MMSI: 227879000.

Date/timePositionNaut miles runAvg speedWind from/ knotsBaromVisibWave heightAir tempDewpointWater temp
2017-Sep-20 00:30N 47°18' W 002°31'1 1.2
2017-Sep-19 23:58N 47°19' W 002°31'4 8.1
2017-Sep-19 23:26N 47°16' W 002°36'610.7
2017-Sep-19 22:54N 47°11' W 002°41'2 0.0
2017-Sep-18 00:12N 47°09' W 002°39'2 8.2
2017-Sep-18 00:00N 47°11' W 002°38'5 9.5
2017-Sep-17 23:30N 47°15' W 002°36'4 9.0
2017-Sep-17 23:00N 47°19' W 002°33'2 0.0
2017-Sep-16 02:00N 47°18' W 002°31'0 0.1
2017-Sep-16 01:09N 47°18' W 002°31'0 0.1
2017-Sep-16 00:20N 47°18' W 002°31'0 0.0
2017-Sep-15 23:47N 47°18' W 002°31'3 5.9
2017-Sep-15 23:20N 47°18' W 002°35'4 9.8
2017-Sep-15 22:55N 47°15' W 002°37'48 1.8
2017-Sep-14 20:13N 47°20' W 003°48'8 2.8
2017-Sep-14 17:28N 47°27' W 003°53'2 3.7
2017-Sep-14 17:00N 47°28' W 003°55'2 3.7
2017-Sep-14 16:30N 47°28' W 003°58'2 3.5
2017-Sep-14 15:58N 47°30' W 003°60'2 3.7
2017-Sep-14 15:30N 47°30' W 004°02'2 3.1
2017-Sep-14 14:59N 47°28' W 004°02'2 1.2
2017-Sep-14 13:21N 47°30' W 004°03'1 3.5
2017-Sep-14 13:00N 47°30' W 004°02'2 3.4
2017-Sep-14 12:30N 47°29' W 003°59'2 3.7
2017-Sep-14 11:59N 47°29' W 003°56'1 2.9
2017-Sep-14 11:30N 47°30' W 003°55'2 3.3
2017-Sep-14 11:00N 47°31' W 003°52'2 3.2
2017-Sep-14 10:28N 47°31' W 003°50'6 3.1
2017-Sep-14 08:33N 47°37' W 003°47'1 4.9
2017-Sep-14 08:23N 47°37' W 003°49'1 2.6
2017-Sep-14 07:58N 47°36' W 003°50'1 3.1
2017-Sep-14 07:30N 47°35' W 003°49'2 3.1
2017-Sep-14 07:00N 47°34' W 003°48'2 3.2
2017-Sep-14 06:30N 47°32' W 003°48'2 3.5
2017-Sep-14 06:00N 47°31' W 003°50'2 3.4
2017-Sep-14 05:30N 47°29' W 003°51'2 3.8
2017-Sep-14 04:54N 47°27' W 003°52'3 7.8
2017-Sep-14 04:30N 47°25' W 003°49'4 8.4
2017-Sep-14 04:00N 47°21' W 003°45'4 8.5
2017-Sep-14 03:30N 47°18' W 003°41'  
2017-Sep-11 00:36N 47°08' W 003°07'1 7.3
2017-Sep-11 00:30N 47°08' W 003°06'4 7.7
2017-Sep-11 00:00N 47°10' W 003°01'4 8.1
2017-Sep-10 23:27N 47°13' W 002°55'4 8.3
2017-Sep-10 23:00N 47°15' W 002°51'4 8.3
2017-Sep-10 22:30N 47°17' W 002°45'4 8.2
2017-Sep-10 22:00N 47°19' W 002°40'4 7.5
2017-Sep-10 21:30N 47°19' W 002°34'3 5.7
2017-Sep-10 21:01N 47°18' W 002°31'  

Dump ship's entire track history